createdAt,value
2023-10-16T00:02:53.673Z,2.88
2023-10-16T00:12:55.631Z,2.97
2023-10-16T00:22:57.616Z,2.65
2023-10-16T00:32:59.606Z,2.08
2023-10-16T00:43:06.287Z,2.30
2023-10-16T00:53:08.244Z,2.80
2023-10-16T01:03:11.253Z,2.05
2023-10-16T01:13:13.381Z,2.47
2023-10-16T01:23:27.210Z,2.47
2023-10-16T01:33:29.230Z,3.03
2023-10-16T01:43:31.812Z,2.42
2023-10-16T01:53:37.286Z,4.55
2023-10-16T02:03:40.098Z,4.82
2023-10-16T02:13:42.842Z,3.92
2023-10-16T02:23:46.194Z,3.00
2023-10-16T02:33:49.953Z,2.65
2023-10-16T02:43:52.058Z,5.18
2023-10-16T02:53:54.146Z,4.25
2023-10-16T03:03:56.067Z,4.35
2023-10-16T03:13:57.917Z,6.38
2023-10-16T03:24:00.277Z,4.03
2023-10-16T03:34:02.426Z,3.65
2023-10-16T03:44:04.367Z,3.72
2023-10-16T03:55:02.397Z,4.60
2023-10-16T04:05:03.028Z,5.15
2023-10-16T04:15:05.659Z,4.90
2023-10-16T04:25:07.754Z,5.10
2023-10-16T04:35:09.814Z,4.93
2023-10-16T04:45:20.907Z,4.90
2023-10-16T04:55:31.003Z,8.03
2023-10-16T05:05:32.989Z,6.35
2023-10-16T05:15:34.883Z,5.45
2023-10-16T05:25:36.861Z,13.52
2023-10-16T05:35:38.776Z,5.55
2023-10-16T05:45:40.867Z,4.53
2023-10-16T05:55:42.845Z,5.75
2023-10-16T06:05:44.805Z,5.50
2023-10-16T06:15:46.735Z,5.22
2023-10-16T06:25:48.715Z,4.68
2023-10-16T06:35:50.622Z,5.20
2023-10-16T06:45:52.934Z,5.55
2023-10-16T06:55:55.215Z,7.40
2023-10-16T07:05:57.076Z,8.55
2023-10-16T07:16:05.990Z,9.55
2023-10-16T07:26:11.797Z,10.07
2023-10-16T07:36:14.101Z,10.40
2023-10-16T07:46:16.544Z,8.20
2023-10-16T07:56:20.108Z,6.00
2023-10-16T08:06:22.059Z,7.45
2023-10-16T08:16:26.956Z,7.40
2023-10-16T08:26:30.715Z,6.03
2023-10-16T08:36:32.767Z,5.25
2023-10-16T08:46:36.711Z,4.28
2023-10-16T08:56:38.832Z,5.40
2023-10-16T09:06:40.737Z,5.90
2023-10-16T09:16:42.809Z,3.75
2023-10-16T09:26:45.690Z,6.22
2023-10-16T09:36:51.424Z,4.78
2023-10-16T09:46:53.339Z,3.30
2023-10-16T09:56:58.323Z,3.58
2023-10-16T10:07:03.692Z,5.50
2023-10-16T10:17:08.161Z,3.80
2023-10-16T10:27:11.345Z,3.80
2023-10-16T10:37:44.771Z,4.97
2023-10-16T10:47:46.987Z,3.47
2023-10-16T10:57:54.457Z,2.40
2023-10-16T11:07:58.810Z,4.15
2023-10-16T11:18:00.765Z,3.50
2023-10-16T11:28:02.986Z,3.55
2023-10-16T11:38:05.092Z,4.28
2023-10-16T11:48:08.187Z,4.03
2023-10-16T11:58:10.280Z,3.22
2023-10-16T12:08:12.552Z,3.40
2023-10-16T12:18:14.836Z,2.65
2023-10-16T12:28:16.844Z,2.88
2023-10-16T12:38:23.418Z,3.72
2023-10-16T12:48:28.141Z,3.70
2023-10-16T12:58:30.153Z,5.85
2023-10-16T13:08:32.714Z,3.15
2023-10-16T13:18:34.569Z,6.50
2023-10-16T13:28:37.588Z,4.40
2023-10-16T13:38:40.487Z,7.80
2023-10-16T13:48:43.005Z,4.43
2023-10-16T13:58:46.903Z,4.38
2023-10-16T14:08:48.942Z,3.53
2023-10-16T14:18:52.982Z,6.97
2023-10-16T14:28:54.840Z,6.57
2023-10-16T14:38:56.902Z,5.78
2023-10-16T14:48:58.769Z,8.10
2023-10-16T14:59:14.269Z,7.95
2023-10-16T15:09:17.775Z,7.07
2023-10-16T15:19:19.713Z,11.73
2023-10-16T15:29:21.805Z,9.35
2023-10-16T15:39:26.888Z,11.48
2023-10-16T15:49:38.200Z,9.85
2023-10-16T15:59:41.239Z,13.48
2023-10-16T16:09:43.243Z,16.80
2023-10-16T16:19:45.786Z,14.95
2023-10-16T16:29:47.757Z,16.33
2023-10-16T16:39:49.745Z,16.35
2023-10-16T16:49:51.820Z,17.67
2023-10-16T16:59:53.940Z,15.10
2023-10-16T17:09:56.306Z,20.02
2023-10-16T17:20:51.003Z,20.42
2023-10-16T17:30:58.543Z,29.63
2023-10-16T17:41:00.623Z,25.30
2023-10-16T17:51:04.996Z,31.30
2023-10-16T18:01:07.018Z,35.38
2023-10-16T18:11:16.918Z,73.57
2023-10-16T18:21:25.195Z,65.47
2023-10-16T18:31:40.102Z,151.75
2023-10-16T18:41:58.027Z,37.10
2023-10-16T19:02:29.762Z,32.30
2023-10-16T19:12:37.602Z,28.70
2023-10-16T19:22:40.382Z,19.42
2023-10-16T19:32:43.950Z,19.85
2023-10-16T19:42:49.069Z,22.35
2023-10-16T19:52:51.473Z,23.27
2023-10-16T20:02:55.199Z,19.80
2023-10-16T20:12:57.199Z,22.05
2023-10-16T20:23:04.655Z,23.55
2023-10-16T20:33:06.949Z,29.33
2023-10-16T20:43:09.456Z,26.60
2023-10-16T20:53:11.839Z,28.20
2023-10-16T21:03:13.856Z,38.00
2023-10-16T21:13:15.865Z,28.05
2023-10-16T21:23:17.754Z,26.35
2023-10-16T21:33:19.829Z,21.30
2023-10-16T21:43:21.857Z,19.17
2023-10-16T21:53:23.932Z,21.25
2023-10-16T22:03:26.657Z,17.65
2023-10-16T22:13:28.648Z,36.40
2023-10-16T22:23:30.487Z,40.90
2023-10-16T22:33:32.481Z,39.28
2023-10-16T22:43:34.441Z,46.80
2023-10-16T22:53:36.288Z,49.90
2023-10-16T23:03:38.232Z,51.75
2023-10-16T23:13:40.179Z,44.50
2023-10-16T23:23:42.060Z,42.92
2023-10-16T23:33:45.595Z,49.13
2023-10-16T23:43:48.486Z,51.05
2023-10-16T23:53:50.717Z,50.15
